Time;durP1;ratioP1;P1;durP2;ratioP2;P2;SDS_P1;SDS_P2;PMS_P1;PMS_P2;Temp;Humidity;BMP_temperature;BMP_pressure;BME280_temperature;BME280_humidity;BME280_pressure;Samples;Min_cycle;Max_cycle;Signal;HPM_P1;HPM_P2
2023/06/22 00:00:41;;;;;;;;;;;25.20;91.30;;;;;;5094102;28;19932;-40
2023/06/22 00:03:07;;;;;;;;;;;25.20;91.30;;;;;;5093817;28;19912;-40
2023/06/22 00:05:32;;;;;;;;;;;25.20;91.30;;;;;;5093889;28;20397;-39
2023/06/22 00:07:58;;;;;;;;;;;25.20;91.40;;;;;;5094182;28;19909;-39
2023/06/22 00:10:23;;;;;;;;;;;25.20;91.40;;;;;;5094093;28;19919;-39
2023/06/22 00:12:49;;;;;;;;;;;25.20;91.40;;;;;;5093951;28;20410;-39
2023/06/22 00:15:14;;;;;;;;;;;25.20;91.40;;;;;;5094077;28;19915;-39
2023/06/22 00:17:40;;;;;;;;;;;25.20;91.30;;;;;;5094058;28;19908;-40
2023/06/22 00:20:05;;;;;;;;;;;25.20;91.40;;;;;;5094069;28;19908;-40
2023/06/22 00:22:31;;;;;;;;;;;25.10;91.30;;;;;;5093859;28;19912;-39
2023/06/22 00:24:57;;;;;;;;;;;25.20;91.40;;;;;;5094757;28;19912;-40
2023/06/22 00:27:22;;;;;;;;;;;25.20;91.50;;;;;;5098186;28;19964;-39
2023/06/22 00:29:48;;;;;;;;;;;25.10;91.40;;;;;;5097808;28;19995;-39
2023/06/22 00:32:13;;;;;;;;;;;25.10;91.40;;;;;;5098066;28;20307;-39
2023/06/22 00:34:38;;;;;;;;;;;25.20;91.40;;;;;;5097870;28;19947;-39
2023/06/22 00:37:04;;;;;;;;;;;25.20;91.50;;;;;;5098103;28;19908;-40
2023/06/22 00:39:29;;;;;;;;;;;25.10;91.40;;;;;;5079764;28;19908;-39
2023/06/22 00:41:55;;;;;;;;;;;25.10;91.50;;;;;;5097827;28;19991;-39
2023/06/22 00:44:21;;;;;;;;;;;25.10;91.40;;;;;;5097632;28;19966;-39
2023/06/22 00:46:46;;;;;;;;;;;25.10;91.50;;;;;;5097497;28;19916;-39
2023/06/22 00:49:12;;;;;;;;;;;25.10;91.50;;;;;;5098196;28;20370;-40
2023/06/22 00:51:38;;;;;;;;;;;25.10;91.40;;;;;;5097785;28;19908;-40
2023/06/22 00:54:05;;;;;;;;;;;25.20;91.50;;;;;;5097343;28;20282;-40
2023/06/22 00:56:30;;;;;;;;;;;25.10;91.50;;;;;;5097372;28;20314;-40
2023/06/22 00:58:57;;;;;;;;;;;25.10;91.50;;;;;;5097345;28;19908;-40
2023/06/22 01:01:22;;;;;;;;;;;25.20;91.50;;;;;;5097225;28;20003;-40
2023/06/22 01:03:48;;;;;;;;;;;25.10;91.40;;;;;;5097450;28;20024;-40
2023/06/22 01:06:18;;;;;;;;;;;25.10;91.40;;;;;;5097087;28;19916;-40
2023/06/22 01:08:53;;;;;;;;;;;25.10;91.50;;;;;;5097468;28;19912;-40
2023/06/22 01:11:25;;;;;;;;;;;25.10;91.50;;;;;;5097311;28;19908;-40
2023/06/22 01:14:04;;;;;;;;;;;25.10;91.40;;;;;;5097079;28;20266;-40
2023/06/22 01:16:31;;;;;;;;;;;25.10;91.50;;;;;;5097021;28;19930;-40
2023/06/22 01:19:00;;;;;;;;;;;25.10;91.50;;;;;;5097047;28;19915;-40
2023/06/22 01:21:27;;;;;;;;;;;25.10;91.50;;;;;;5097185;28;19966;-40
2023/06/22 01:24:10;;;;;;;;;;;25.10;91.50;;;;;;5097097;28;20028;-40
2023/06/22 01:26:47;;;;;;;;;;;25.10;91.50;;;;;;5097422;28;19951;-40
2023/06/22 01:29:14;;;;;;;;;;;25.10;91.60;;;;;;5096834;28;20073;-40
2023/06/22 01:31:40;;;;;;;;;;;25.10;91.50;;;;;;5096999;28;19956;-40
2023/06/22 01:34:07;;;;;;;;;;;25.10;91.60;;;;;;5096720;28;20387;-40
2023/06/22 01:36:33;;;;;;;;;;;25.10;91.40;;;;;;5095429;28;19938;-40
2023/06/22 01:38:58;;;;;;;;;;;25.10;91.50;;;;;;5096611;28;20258;-40
2023/06/22 01:41:25;;;;;;;;;;;25.10;91.50;;;;;;5096579;28;20319;-40
2023/06/22 01:43:52;;;;;;;;;;;25.10;91.50;;;;;;5096748;28;19920;-40
2023/06/22 01:46:19;;;;;;;;;;;25.10;91.50;;;;;;5096740;28;19947;-40
2023/06/22 01:48:45;;;;;;;;;;;25.10;91.40;;;;;;5096794;28;19920;-40
2023/06/22 01:51:10;;;;;;;;;;;25.10;91.60;;;;;;5096702;28;20258;-40
2023/06/22 01:53:36;;;;;;;;;;;25.10;91.50;;;;;;5097000;28;19908;-40
2023/06/22 01:56:01;;;;;;;;;;;25.10;91.60;;;;;;5096255;28;19912;-40
2023/06/22 01:58:28;;;;;;;;;;;25.10;91.50;;;;;;5096525;28;20006;-40
2023/06/22 02:01:05;;;;;;;;;;;25.10;91.50;;;;;;5096189;28;19909;-40
2023/06/22 02:03:32;;;;;;;;;;;25.10;91.60;;;;;;5096049;28;19912;-40
2023/06/22 02:06:02;;;;;;;;;;;25.10;91.70;;;;;;5096670;28;19912;-40
2023/06/22 02:08:29;;;;;;;;;;;25.10;91.60;;;;;;5096303;28;20263;-40
2023/06/22 02:10:55;;;;;;;;;;;25.10;91.70;;;;;;5095994;28;19955;-41
2023/06/22 02:13:20;;;;;;;;;;;25.10;91.80;;;;;;5078084;28;19908;-40
2023/06/22 02:15:47;;;;;;;;;;;25.10;91.80;;;;;;5096166;28;19998;-40
2023/06/22 02:18:13;;;;;;;;;;;25.10;91.80;;;;;;5095891;28;19954;-40
2023/06/22 02:20:38;;;;;;;;;;;25.10;91.80;;;;;;5095812;28;19915;-40
2023/06/22 02:23:05;;;;;;;;;;;25.10;91.80;;;;;;5095956;28;19912;-40
2023/06/22 02:25:31;;;;;;;;;;;25.10;92.00;;;;;;5095955;28;20343;-40
2023/06/22 02:27:57;;;;;;;;;;;25.10;91.70;;;;;;5095567;28;20363;-40
2023/06/22 02:30:22;;;;;;;;;;;25.10;91.70;;;;;;5095881;28;19915;-40
2023/06/22 02:32:48;;;;;;;;;;;25.10;91.80;;;;;;5095818;28;20248;-40
2023/06/22 02:35:13;;;;;;;;;;;25.10;91.80;;;;;;5095592;28;19920;-40
2023/06/22 02:37:41;;;;;;;;;;;25.10;91.80;;;;;;5095710;28;20348;-40
2023/06/22 02:40:10;;;;;;;;;;;25.10;89.70;;;;;;5095438;28;19908;-40
2023/06/22 02:42:36;;;;;;;;;;;25.10;90.80;;;;;;5095458;28;19912;-40
2023/06/22 02:45:01;;;;;;;;;;;25.10;91.20;;;;;;5095328;28;19919;-40
2023/06/22 02:47:27;;;;;;;;;;;25.10;91.40;;;;;;5094512;28;19924;-40
2023/06/22 02:49:52;;;;;;;;;;;25.10;91.40;;;;;;5095758;28;19908;-40
2023/06/22 02:52:18;;;;;;;;;;;25.00;91.40;;;;;;5095467;28;19908;-40
2023/06/22 02:54:45;;;;;;;;;;;25.10;91.60;;;;;;5095409;28;19964;-40
2023/06/22 02:57:13;;;;;;;;;;;25.10;91.50;;;;;;5095074;28;19912;-40
2023/06/22 02:59:40;;;;;;;;;;;25.10;91.50;;;;;;5095408;28;19911;-40
2023/06/22 03:02:06;;;;;;;;;;;25.10;91.60;;;;;;5095202;28;19919;-40
2023/06/22 03:04:31;;;;;;;;;;;25.00;91.60;;;;;;5095224;28;19912;-40
2023/06/22 03:07:00;;;;;;;;;;;25.00;91.50;;;;;;5095180;28;19962;-40
2023/06/22 03:09:27;;;;;;;;;;;25.00;91.50;;;;;;5094763;28;19909;-40
2023/06/22 03:11:53;;;;;;;;;;;25.00;91.40;;;;;;5095094;28;19916;-40
2023/06/22 03:14:18;;;;;;;;;;;25.10;91.70;;;;;;5095010;28;19996;-40
2023/06/22 03:16:44;;;;;;;;;;;25.00;91.70;;;;;;5094850;28;19908;-40
2023/06/22 03:19:09;;;;;;;;;;;25.10;91.80;;;;;;5094808;28;20415;-40
2023/06/22 03:21:37;;;;;;;;;;;25.00;91.70;;;;;;5092387;28;19912;-40
2023/06/22 03:24:02;;;;;;;;;;;25.10;91.80;;;;;;5094601;28;19916;-40
2023/06/22 03:26:28;;;;;;;;;;;25.10;92.00;;;;;;5094709;28;20377;-40
2023/06/22 03:28:53;;;;;;;;;;;25.10;91.80;;;;;;5076640;28;19919;-40
2023/06/22 03:31:21;;;;;;;;;;;25.10;91.80;;;;;;5094578;28;20294;-41
2023/06/22 03:33:48;;;;;;;;;;;25.10;91.80;;;;;;5092779;28;20370;-41
2023/06/22 03:36:16;;;;;;;;;;;25.10;91.80;;;;;;5092850;28;19919;-43
2023/06/22 03:38:41;;;;;;;;;;;25.10;91.90;;;;;;5093591;28;19915;-41
2023/06/22 03:41:07;;;;;;;;;;;25.10;91.80;;;;;;5094035;28;19908;-40
2023/06/22 03:43:32;;;;;;;;;;;25.10;91.90;;;;;;5093642;28;20010;-40
2023/06/22 03:45:58;;;;;;;;;;;25.10;91.90;;;;;;5093572;28;19934;-40
2023/06/22 03:48:23;;;;;;;;;;;25.10;91.90;;;;;;5075952;28;19948;-40
2023/06/22 03:50:49;;;;;;;;;;;25.10;91.90;;;;;;5094177;28;19947;-40
2023/06/22 03:53:14;;;;;;;;;;;25.10;91.90;;;;;;5094370;28;19912;-41
2023/06/22 03:55:50;;;;;;;;;;;25.10;91.90;;;;;;5094054;28;20358;-40
2023/06/22 03:58:16;;;;;;;;;;;25.10;91.90;;;;;;5094320;28;19977;-40
2023/06/22 04:00:41;;;;;;;;;;;25.10;91.90;;;;;;5093264;28;20447;-40
2023/06/22 04:03:07;;;;;;;;;;;25.10;91.90;;;;;;5093829;28;19992;-40
2023/06/22 04:05:32;;;;;;;;;;;25.10;91.90;;;;;;5093988;28;20012;-40
2023/06/22 04:07:58;;;;;;;;;;;25.10;91.80;;;;;;5094127;28;19908;-40
2023/06/22 04:10:23;;;;;;;;;;;25.10;91.90;;;;;;5094050;28;20282;-40
2023/06/22 04:12:49;;;;;;;;;;;25.10;91.90;;;;;;5075934;28;20013;-40
2023/06/22 04:15:14;;;;;;;;;;;25.10;91.90;;;;;;5093700;28;19908;-40
2023/06/22 04:17:40;;;;;;;;;;;25.10;91.80;;;;;;5075990;28;19908;-40
2023/06/22 04:20:06;;;;;;;;;;;25.10;91.70;;;;;;5093943;28;19916;-40
2023/06/22 04:22:31;;;;;;;;;;;25.20;91.70;;;;;;5093914;28;19912;-40
2023/06/22 04:24:57;;;;;;;;;;;25.20;91.70;;;;;;5093972;28;19958;-40
2023/06/22 04:27:23;;;;;;;;;;;25.20;91.70;;;;;;5093665;28;20315;-40
2023/06/22 04:29:48;;;;;;;;;;;25.20;91.60;;;;;;5093877;28;19962;-40
2023/06/22 04:32:15;;;;;;;;;;;25.20;91.60;;;;;;5093788;28;19908;-41
2023/06/22 04:34:40;;;;;;;;;;;25.20;91.50;;;;;;5075603;28;19958;-40
2023/06/22 04:37:06;;;;;;;;;;;25.20;91.50;;;;;;5093431;28;20290;-40
2023/06/22 04:39:31;;;;;;;;;;;25.20;91.50;;;;;;5093504;28;19973;-40
2023/06/22 04:42:00;;;;;;;;;;;25.30;91.50;;;;;;5094066;28;19961;-40
2023/06/22 04:44:25;;;;;;;;;;;25.20;91.50;;;;;;5093793;28;19912;-40
2023/06/22 04:46:57;;;;;;;;;;;25.20;91.50;;;;;;5093331;28;19915;-40
2023/06/22 04:49:23;;;;;;;;;;;25.20;91.50;;;;;;5093377;28;20476;-40
2023/06/22 04:51:51;;;;;;;;;;;25.30;91.50;;;;;;5093408;28;19956;-40
2023/06/22 04:54:17;;;;;;;;;;;25.30;91.50;;;;;;5093735;28;19909;-40
2023/06/22 04:56:42;;;;;;;;;;;25.30;91.50;;;;;;5093235;28;19914;-40
2023/06/22 04:59:08;;;;;;;;;;;25.20;91.50;;;;;;5093502;28;20347;-40
2023/06/22 05:01:34;;;;;;;;;;;25.30;91.50;;;;;;5093606;28;19969;-40
2023/06/22 05:04:01;;;;;;;;;;;25.30;91.50;;;;;;5093430;28;19957;-40
2023/06/22 05:06:26;;;;;;;;;;;25.30;91.50;;;;;;5093603;28;19947;-40
2023/06/22 05:08:58;;;;;;;;;;;25.30;91.50;;;;;;5093154;28;19915;-40
2023/06/22 05:11:27;;;;;;;;;;;25.30;91.50;;;;;;5095250;28;20017;-39
2023/06/22 05:13:52;;;;;;;;;;;25.30;91.50;;;;;;5097287;28;19908;-40
2023/06/22 05:16:23;;;;;;;;;;;25.30;91.50;;;;;;5097285;28;19969;-40
2023/06/22 05:18:53;;;;;;;;;;;25.30;91.50;;;;;;5097272;28;19915;-40
2023/06/22 05:21:19;;;;;;;;;;;25.30;91.50;;;;;;5097134;28;19908;-40
2023/06/22 05:23:44;;;;;;;;;;;25.30;91.50;;;;;;5096867;28;19935;-39
2023/06/22 05:26:10;;;;;;;;;;;25.30;91.60;;;;;;5096651;28;19912;-39
2023/06/22 05:28:35;;;;;;;;;;;25.30;91.50;;;;;;5096707;28;20072;-40
2023/06/22 05:31:01;;;;;;;;;;;25.30;91.60;;;;;;5096876;28;20068;-40
2023/06/22 05:33:26;;;;;;;;;;;25.30;91.60;;;;;;5096636;28;19915;-40
2023/06/22 05:35:52;;;;;;;;;;;25.30;91.60;;;;;;5096385;28;19915;-40
2023/06/22 05:38:17;;;;;;;;;;;25.30;91.50;;;;;;5096439;28;19914;-40
2023/06/22 05:40:42;;;;;;;;;;;25.30;91.60;;;;;;5096678;28;20003;-40
2023/06/22 05:43:08;;;;;;;;;;;25.30;91.60;;;;;;5096516;28;20003;-40
2023/06/22 05:45:34;;;;;;;;;;;25.30;91.50;;;;;;5096169;28;19916;-40
2023/06/22 05:47:59;;;;;;;;;;;25.30;91.60;;;;;;5094594;28;19927;-40
2023/06/22 05:50:24;;;;;;;;;;;25.30;91.60;;;;;;5095763;28;19908;-40
2023/06/22 05:52:50;;;;;;;;;;;25.30;91.60;;;;;;5096222;28;19999;-40
2023/06/22 05:55:18;;;;;;;;;;;25.30;91.60;;;;;;5096014;28;20244;-42
2023/06/22 05:57:44;;;;;;;;;;;25.30;91.60;;;;;;5107231;28;19916;-41
2023/06/22 06:00:11;;;;;;;;;;;25.30;91.60;;;;;;5075762;28;20257;-40
2023/06/22 06:02:36;;;;;;;;;;;25.30;91.60;;;;;;5091683;28;19916;-41
2023/06/22 06:05:03;;;;;;;;;;;25.30;91.60;;;;;;5096743;28;19923;-40
2023/06/22 06:07:29;;;;;;;;;;;25.30;90.60;;;;;;5107360;28;20385;-40
2023/06/22 06:09:54;;;;;;;;;;;25.30;90.30;;;;;;5115467;28;19918;-41
2023/06/22 06:12:20;;;;;;;;;;;25.30;89.70;;;;;;5115513;28;19912;-41
2023/06/22 06:14:47;;;;;;;;;;;25.20;89.50;;;;;;5106005;28;19912;-42
2023/06/22 06:17:12;;;;;;;;;;;25.20;89.20;;;;;;5100887;28;19991;-41
2023/06/22 06:19:38;;;;;;;;;;;25.20;89.30;;;;;;5107004;28;20352;-40
2023/06/22 06:22:03;;;;;;;;;;;25.20;89.50;;;;;;5085343;28;19921;-40
2023/06/22 06:24:29;;;;;;;;;;;25.20;90.00;;;;;;5075302;28;19913;-40
2023/06/22 06:26:55;;;;;;;;;;;25.20;90.20;;;;;;5075622;28;20351;-40
2023/06/22 06:29:20;;;;;;;;;;;25.20;90.30;;;;;;5075174;28;19918;-40
2023/06/22 06:31:46;;;;;;;;;;;25.20;90.50;;;;;;5075568;28;19908;-40
2023/06/22 06:34:11;;;;;;;;;;;25.20;90.60;;;;;;5074676;28;19916;-40
2023/06/22 06:36:37;;;;;;;;;;;25.20;90.70;;;;;;5075059;28;20257;-40
2023/06/22 06:39:03;;;;;;;;;;;25.20;90.70;;;;;;5074880;28;19908;-40
2023/06/22 06:41:29;;;;;;;;;;;25.30;90.80;;;;;;5075331;28;19909;-40
2023/06/22 06:43:54;;;;;;;;;;;25.30;90.80;;;;;;5074938;28;20321;-40
2023/06/22 06:46:20;;;;;;;;;;;25.30;90.80;;;;;;5075096;28;19920;-41
2023/06/22 06:48:45;;;;;;;;;;;25.30;90.80;;;;;;5075022;28;19921;-41
2023/06/22 06:51:11;;;;;;;;;;;25.30;90.90;;;;;;5074932;28;19959;-41
2023/06/22 06:53:37;;;;;;;;;;;25.30;90.90;;;;;;5056756;28;19999;-40
2023/06/22 06:56:05;;;;;;;;;;;25.30;90.90;;;;;;5074512;28;20283;-40
2023/06/22 06:58:30;;;;;;;;;;;25.30;90.90;;;;;;5074630;28;19916;-40
2023/06/22 07:00:56;;;;;;;;;;;25.30;90.90;;;;;;5074472;28;19908;-41
2023/06/22 07:03:21;;;;;;;;;;;25.30;90.90;;;;;;5074651;28;19960;-41
2023/06/22 07:05:47;;;;;;;;;;;25.30;90.90;;;;;;5074639;28;20274;-42
2023/06/22 07:08:12;;;;;;;;;;;25.30;90.90;;;;;;5074415;28;20292;-41
2023/06/22 07:10:38;;;;;;;;;;;25.30;90.90;;;;;;5074331;28;19908;-40
2023/06/22 07:13:03;;;;;;;;;;;25.30;91.00;;;;;;5074697;28;19912;-40
2023/06/22 07:15:29;;;;;;;;;;;25.30;91.00;;;;;;5074361;28;19908;-41
2023/06/22 07:17:54;;;;;;;;;;;25.30;91.00;;;;;;5074633;28;20286;-40
2023/06/22 07:20:19;;;;;;;;;;;25.30;91.00;;;;;;5074546;28;20271;-41
2023/06/22 07:22:45;;;;;;;;;;;25.30;91.00;;;;;;5074423;28;19912;-41
2023/06/22 07:25:13;;;;;;;;;;;25.30;91.00;;;;;;5074350;28;19942;-40
2023/06/22 07:27:43;;;;;;;;;;;25.30;91.00;;;;;;5074040;28;19963;-40
2023/06/22 07:30:09;;;;;;;;;;;25.30;91.00;;;;;;5074424;28;19941;-40
2023/06/22 07:32:35;;;;;;;;;;;25.30;91.00;;;;;;5073885;28;19909;-41
2023/06/22 07:35:01;;;;;;;;;;;25.30;91.00;;;;;;5074583;28;20011;-41
2023/06/22 07:37:27;;;;;;;;;;;25.30;91.00;;;;;;5074078;28;19916;-41
2023/06/22 07:39:57;;;;;;;;;;;25.30;91.00;;;;;;5074390;28;19962;-40
2023/06/22 07:42:23;;;;;;;;;;;25.30;91.00;;;;;;5073996;28;19916;-40
2023/06/22 07:44:50;;;;;;;;;;;25.30;91.00;;;;;;5073754;28;19982;-41
2023/06/22 07:47:17;;;;;;;;;;;25.30;91.00;;;;;;5073696;28;20363;-40
2023/06/22 07:49:43;;;;;;;;;;;25.30;91.00;;;;;;5074089;28;20263;-40
2023/06/22 07:52:08;;;;;;;;;;;25.30;91.00;;;;;;5074396;28;20289;-41
2023/06/22 07:54:34;;;;;;;;;;;25.40;91.00;;;;;;5056009;28;19909;-41
2023/06/22 07:57:00;;;;;;;;;;;25.40;91.00;;;;;;5073681;28;19909;-38
2023/06/22 07:59:25;;;;;;;;;;;25.40;91.00;;;;;;5073817;28;19912;-41
2023/06/22 08:01:51;;;;;;;;;;;25.40;91.00;;;;;;5073936;28;19908;-40
2023/06/22 08:04:16;;;;;;;;;;;25.30;91.00;;;;;;5073860;28;19958;-39
2023/06/22 08:06:42;;;;;;;;;;;25.30;91.00;;;;;;5074012;28;19940;-40
2023/06/22 08:09:07;;;;;;;;;;;25.40;91.00;;;;;;5073536;28;19908;-39
2023/06/22 08:11:33;;;;;;;;;;;25.40;91.00;;;;;;5074074;28;19999;-40
2023/06/22 08:13:59;;;;;;;;;;;25.30;91.00;;;;;;5073991;28;20262;-39
2023/06/22 08:16:24;;;;;;;;;;;25.40;91.00;;;;;;5073701;28;19913;-40
2023/06/22 08:18:50;;;;;;;;;;;25.30;91.00;;;;;;5073313;28;19915;-39
2023/06/22 08:21:16;;;;;;;;;;;25.40;91.00;;;;;;5073575;28;19951;-40
2023/06/22 08:23:41;;;;;;;;;;;25.30;91.00;;;;;;5073346;28;20280;-39
2023/06/22 08:26:07;;;;;;;;;;;25.30;91.00;;;;;;5073393;28;19913;-39
2023/06/22 08:28:32;;;;;;;;;;;25.40;91.00;;;;;;5073363;28;19974;-39
2023/06/22 08:30:58;;;;;;;;;;;25.40;91.00;;;;;;5073409;28;20473;-39
2023/06/22 08:33:28;;;;;;;;;;;25.40;91.00;;;;;;5073302;28;19920;-39
2023/06/22 08:35:57;;;;;;;;;;;25.40;91.00;;;;;;5073714;28;19909;-40
2023/06/22 08:38:23;;;;;;;;;;;25.40;91.00;;;;;;5073627;28;19995;-40
2023/06/22 08:40:48;;;;;;;;;;;25.40;91.00;;;;;;5073156;28;19959;-40
2023/06/22 08:43:14;;;;;;;;;;;25.40;91.00;;;;;;5073447;28;19917;-40
2023/06/22 08:45:39;;;;;;;;;;;25.40;91.00;;;;;;5073807;28;20323;-39
2023/06/22 08:48:05;;;;;;;;;;;25.40;91.00;;;;;;5059389;28;19921;-40
2023/06/22 08:50:30;;;;;;;;;;;25.40;91.00;;;;;;5077282;28;19908;-39
2023/06/22 08:52:56;;;;;;;;;;;25.40;91.00;;;;;;5076984;28;19908;-39
2023/06/22 08:55:21;;;;;;;;;;;25.40;91.00;;;;;;5077063;28;19991;-40
2023/06/22 08:57:47;;;;;;;;;;;25.40;91.00;;;;;;5076958;28;19915;-40
2023/06/22 09:00:17;;;;;;;;;;;25.40;91.00;;;;;;5077272;28;19962;-40
2023/06/22 09:02:43;;;;;;;;;;;25.40;91.00;;;;;;5076767;28;20003;-40
2023/06/22 09:05:09;;;;;;;;;;;25.40;91.00;;;;;;5077089;28;19970;-40
2023/06/22 09:07:34;;;;;;;;;;;25.40;91.00;;;;;;5076798;28;19940;-40
2023/06/22 09:09:59;;;;;;;;;;;25.40;91.00;;;;;;5077048;28;19916;-39
2023/06/22 09:12:25;;;;;;;;;;;25.40;91.00;;;;;;5076846;28;19916;-40
2023/06/22 09:14:51;;;;;;;;;;;25.40;91.00;;;;;;5076839;28;19912;-39
2023/06/22 09:17:16;;;;;;;;;;;25.40;91.00;;;;;;5076546;28;19909;-39
2023/06/22 09:19:42;;;;;;;;;;;25.40;91.00;;;;;;5076796;28;19963;-39
2023/06/22 09:22:07;;;;;;;;;;;25.40;91.00;;;;;;5076306;28;19966;-39
2023/06/22 09:24:33;;;;;;;;;;;25.40;91.00;;;;;;5076825;28;19959;-39
2023/06/22 09:26:58;;;;;;;;;;;25.40;91.00;;;;;;5076422;28;19909;-39
2023/06/22 09:29:24;;;;;;;;;;;25.40;91.00;;;;;;5076497;28;19908;-39
2023/06/22 09:31:49;;;;;;;;;;;25.40;91.00;;;;;;5076200;28;19915;-41
2023/06/22 09:34:15;;;;;;;;;;;25.40;91.00;;;;;;5076101;28;19984;-39
2023/06/22 09:36:41;;;;;;;;;;;25.50;91.00;;;;;;5076310;28;19909;-39
2023/06/22 09:39:06;;;;;;;;;;;25.50;91.00;;;;;;5075939;28;20029;-39
2023/06/22 09:41:32;;;;;;;;;;;25.40;91.00;;;;;;5076003;28;20299;-39
2023/06/22 09:43:57;;;;;;;;;;;25.40;91.00;;;;;;5076045;28;19913;-40
2023/06/22 09:46:25;;;;;;;;;;;25.40;91.00;;;;;;5076161;28;20043;-41
2023/06/22 09:48:50;;;;;;;;;;;25.40;91.00;;;;;;5076447;28;20019;-42
2023/06/22 09:51:16;;;;;;;;;;;25.40;91.00;;;;;;5076396;28;20057;-41
2023/06/22 09:53:41;;;;;;;;;;;25.40;91.00;;;;;;5075953;28;19909;-40
2023/06/22 09:56:11;;;;;;;;;;;25.50;91.00;;;;;;5075554;28;19908;-41
2023/06/22 09:58:36;;;;;;;;;;;25.40;91.00;;;;;;5074637;28;20263;-41
2023/06/22 10:01:01;;;;;;;;;;;25.40;91.00;;;;;;5076095;28;20006;-40
2023/06/22 10:03:27;;;;;;;;;;;25.40;91.00;;;;;;5076311;28;20201;-40
2023/06/22 10:05:52;;;;;;;;;;;25.50;91.00;;;;;;5076359;28;19935;-41
2023/06/22 10:08:18;;;;;;;;;;;25.50;91.00;;;;;;5075604;28;19909;-41
2023/06/22 10:10:43;;;;;;;;;;;25.40;91.20;;;;;;5075869;28;19916;-40
2023/06/22 10:13:13;;;;;;;;;;;25.40;91.00;;;;;;5075863;28;19908;-40
2023/06/22 10:15:38;;;;;;;;;;;25.50;91.00;;;;;;5075932;28;20319;-40
2023/06/22 10:18:04;;;;;;;;;;;25.40;91.00;;;;;;5075865;28;19959;-40
2023/06/22 10:20:30;;;;;;;;;;;25.40;91.00;;;;;;5075688;28;19908;-40
2023/06/22 10:22:55;;;;;;;;;;;25.40;91.00;;;;;;5075731;28;20324;-40
2023/06/22 10:25:21;;;;;;;;;;;25.50;91.00;;;;;;5075308;28;19963;-40
2023/06/22 10:27:46;;;;;;;;;;;25.50;91.00;;;;;;5075523;28;19908;-40
2023/06/22 10:30:15;;;;;;;;;;;25.50;91.00;;;;;;5075263;28;19908;-40
2023/06/22 10:32:42;;;;;;;;;;;25.40;91.00;;;;;;5075770;28;20369;-40
2023/06/22 10:35:08;;;;;;;;;;;25.50;91.00;;;;;;5075052;28;19997;-40
2023/06/22 10:37:33;;;;;;;;;;;25.50;91.00;;;;;;5074752;28;19948;-40
2023/06/22 10:39:59;;;;;;;;;;;25.50;91.00;;;;;;5074821;28;19909;-43
2023/06/22 10:42:24;;;;;;;;;;;25.50;91.10;;;;;;5075062;28;20259;-41
2023/06/22 10:44:50;;;;;;;;;;;25.50;91.10;;;;;;5075499;28;20389;-40
2023/06/22 10:47:15;;;;;;;;;;;25.50;91.00;;;;;;5056856;28;19956;-41
2023/06/22 10:49:41;;;;;;;;;;;25.50;91.10;;;;;;5057149;28;19909;-40
2023/06/22 10:52:07;;;;;;;;;;;25.50;91.10;;;;;;5074729;28;20280;-40
2023/06/22 10:54:33;;;;;;;;;;;25.50;91.00;;;;;;5075043;28;19908;-40
2023/06/22 10:56:59;;;;;;;;;;;25.40;91.00;;;;;;5074655;28;20279;-40
2023/06/22 10:59:25;;;;;;;;;;;25.50;91.00;;;;;;5074689;28;19908;-41
2023/06/22 11:01:51;;;;;;;;;;;25.50;91.10;;;;;;5074921;28;20006;-40
2023/06/22 11:04:17;;;;;;;;;;;25.50;91.10;;;;;;5074476;28;19970;-41
2023/06/22 11:06:43;;;;;;;;;;;25.50;91.10;;;;;;5074731;28;20307;-40
2023/06/22 11:09:08;;;;;;;;;;;25.50;91.00;;;;;;5074169;28;19915;-41
2023/06/22 11:11:34;;;;;;;;;;;25.50;91.00;;;;;;5074822;28;19913;-40
2023/06/22 11:13:59;;;;;;;;;;;25.50;91.00;;;;;;5074631;28;19983;-41
2023/06/22 11:16:25;;;;;;;;;;;25.50;91.00;;;;;;5074450;28;19912;-41
2023/06/22 11:18:50;;;;;;;;;;;25.50;91.00;;;;;;5074461;28;20360;-40
2023/06/22 11:21:16;;;;;;;;;;;25.50;91.00;;;;;;5074108;28;19987;-40
2023/06/22 11:23:42;;;;;;;;;;;25.50;91.00;;;;;;5074274;28;19912;-40
2023/06/22 11:26:07;;;;;;;;;;;25.50;91.00;;;;;;5074128;28;19912;-40
2023/06/22 11:28:33;;;;;;;;;;;25.50;91.00;;;;;;5074338;28;19909;-40
2023/06/22 11:30:58;;;;;;;;;;;25.50;91.00;;;;;;5074398;28;19916;-39
2023/06/22 11:33:24;;;;;;;;;;;25.50;91.00;;;;;;5074489;28;20430;-39
2023/06/22 11:35:49;;;;;;;;;;;25.50;91.00;;;;;;5073844;28;19916;-39
2023/06/22 11:38:15;;;;;;;;;;;25.50;91.00;;;;;;5074361;28;19915;-39
2023/06/22 11:40:40;;;;;;;;;;;25.50;91.00;;;;;;5073919;28;19999;-39
2023/06/22 11:43:06;;;;;;;;;;;25.50;91.00;;;;;;5073668;28;20369;-40
2023/06/22 11:45:31;;;;;;;;;;;25.50;91.00;;;;;;5073716;28;19920;-39
2023/06/22 11:47:57;;;;;;;;;;;25.50;91.10;;;;;;5073743;28;19997;-40
2023/06/22 11:50:22;;;;;;;;;;;25.50;91.00;;;;;;5074115;28;20343;-39
2023/06/22 11:52:48;;;;;;;;;;;25.50;91.10;;;;;;5073929;28;19909;-40
2023/06/22 11:55:13;;;;;;;;;;;25.50;91.10;;;;;;5073243;28;20432;-40
2023/06/22 11:57:51;;;;;;;;;;;25.50;91.10;;;;;;5073726;28;19920;-40
2023/06/22 12:00:17;;;;;;;;;;;25.50;91.10;;;;;;5073916;28;19915;-40
2023/06/22 12:02:44;;;;;;;;;;;25.50;91.10;;;;;;5073752;28;19912;-40
2023/06/22 12:05:10;;;;;;;;;;;25.50;91.10;;;;;;5055768;28;20424;-40
2023/06/22 12:07:36;;;;;;;;;;;25.50;91.10;;;;;;5073724;28;19912;-40
2023/06/22 12:10:02;;;;;;;;;;;25.50;91.10;;;;;;5073736;28;19999;-39
2023/06/22 12:12:27;;;;;;;;;;;25.50;91.10;;;;;;5073550;28;19913;-39
2023/06/22 12:14:52;;;;;;;;;;;25.50;91.10;;;;;;5073475;28;19956;-39
2023/06/22 12:17:18;;;;;;;;;;;25.50;91.10;;;;;;5073575;28;19908;-39
2023/06/22 12:19:43;;;;;;;;;;;25.50;91.10;;;;;;5055398;28;20420;-40
2023/06/22 12:22:09;;;;;;;;;;;25.50;91.10;;;;;;5072484;28;19908;-39
2023/06/22 12:24:34;;;;;;;;;;;25.50;91.10;;;;;;5073235;28;19912;-40
2023/06/22 12:27:00;;;;;;;;;;;25.50;91.10;;;;;;5073393;28;19966;-41
2023/06/22 12:29:25;;;;;;;;;;;25.50;91.10;;;;;;5073004;28;19908;-40
2023/06/22 12:31:51;;;;;;;;;;;25.50;91.10;;;;;;5073743;28;20351;-40
2023/06/22 12:34:16;;;;;;;;;;;25.50;91.10;;;;;;5073293;28;19917;-39
2023/06/22 12:36:42;;;;;;;;;;;25.60;91.10;;;;;;5073801;28;19953;-40
2023/06/22 12:39:07;;;;;;;;;;;25.50;91.10;;;;;;5073471;28;19916;-40
2023/06/22 12:41:33;;;;;;;;;;;25.60;91.10;;;;;;5073066;28;19962;-40
2023/06/22 12:43:58;;;;;;;;;;;25.50;91.10;;;;;;5073150;28;19921;-39
2023/06/22 12:46:23;;;;;;;;;;;25.50;91.10;;;;;;5073029;28;19916;-39
2023/06/22 12:48:49;;;;;;;;;;;25.60;91.10;;;;;;5073448;28;20378;-39
2023/06/22 12:51:20;;;;;;;;;;;25.50;91.10;;;;;;5073541;28;19916;-40
2023/06/22 12:53:45;;;;;;;;;;;25.60;91.10;;;;;;5073053;28;20382;-39
2023/06/22 12:56:11;;;;;;;;;;;25.60;91.10;;;;;;5073152;28;19916;-40
2023/06/22 12:58:36;;;;;;;;;;;25.60;91.10;;;;;;5073347;28;20321;-39
2023/06/22 13:01:02;;;;;;;;;;;25.60;91.10;;;;;;5072851;28;19912;-40
2023/06/22 13:03:27;;;;;;;;;;;25.60;91.10;;;;;;5073073;28;19919;-40
2023/06/22 13:05:53;;;;;;;;;;;25.60;91.10;;;;;;5073117;28;20413;-40
2023/06/22 13:08:18;;;;;;;;;;;25.60;91.10;;;;;;5073163;28;19908;-40
2023/06/22 13:10:44;;;;;;;;;;;25.60;91.10;;;;;;5073202;28;19909;-40
2023/06/22 13:13:09;;;;;;;;;;;25.60;91.10;;;;;;5073572;28;19909;-40
2023/06/22 13:15:35;;;;;;;;;;;25.60;91.10;;;;;;5072848;28;19932;-41
2023/06/22 13:18:00;;;;;;;;;;;25.60;91.10;;;;;;5072872;28;19915;-41
2023/06/22 13:20:26;;;;;;;;;;;25.60;91.10;;;;;;5072754;28;19961;-40
2023/06/22 13:22:51;;;;;;;;;;;25.60;91.10;;;;;;5073124;28;19919;-40
2023/06/22 13:25:19;;;;;;;;;;;25.60;91.10;;;;;;5055137;28;20319;-40
2023/06/22 13:27:44;;;;;;;;;;;25.60;91.10;;;;;;5073180;28;19912;-41
2023/06/22 13:30:10;;;;;;;;;;;25.60;91.10;;;;;;5072903;28;19995;-40
2023/06/22 13:32:35;;;;;;;;;;;25.60;91.10;;;;;;5074635;28;20000;-40
2023/06/22 13:35:01;;;;;;;;;;;25.60;91.20;;;;;;5076455;28;20314;-40
2023/06/22 13:37:27;;;;;;;;;;;25.60;91.10;;;;;;5076025;28;20008;-41
2023/06/22 13:39:52;;;;;;;;;;;25.60;91.20;;;;;;5076560;28;20003;-40
2023/06/22 13:42:18;;;;;;;;;;;25.60;91.20;;;;;;5076398;28;20351;-41
2023/06/22 13:44:43;;;;;;;;;;;25.60;91.20;;;;;;5075916;28;19917;-41
2023/06/22 13:47:09;;;;;;;;;;;25.60;91.20;;;;;;5075932;28;19967;-40
2023/06/22 13:49:34;;;;;;;;;;;25.60;91.20;;;;;;5075998;28;19909;-40
2023/06/22 13:52:00;;;;;;;;;;;25.60;91.20;;;;;;5076322;28;20314;-40
2023/06/22 13:54:25;;;;;;;;;;;25.70;91.20;;;;;;5075667;28;19909;-41
2023/06/22 13:56:51;;;;;;;;;;;25.60;91.20;;;;;;5075958;28;19957;-40
2023/06/22 13:59:16;;;;;;;;;;;25.60;91.20;;;;;;5075706;28;19909;-41
2023/06/22 14:01:43;;;;;;;;;;;25.60;91.20;;;;;;5075822;28;19908;-40
2023/06/22 14:04:08;;;;;;;;;;;25.60;91.20;;;;;;5075917;28;20344;-40
2023/06/22 14:06:34;;;;;;;;;;;25.60;91.20;;;;;;5075576;28;19916;-40
2023/06/22 14:08:59;;;;;;;;;;;25.60;91.20;;;;;;5075774;28;19908;-41